S/y Tatsu — MKEM9 — position and weather

sailwx.info

Track history (hours):
 
Tides and Currents Weather Stations Pressure Air Temp Water Temp Dewpoint Dewpoint Depression Visibility Wind Speed Wind Dir Waves Ship Positions

S/y Tatsu

Last reported at 2016-Jul-29 20:10 UTC. Time now 2016-Jul-30 09:19 UTC.
Position N 50°41' W 001°03'.

Length 11 m.

Type: Sailing vessel. MMSI: 235071049.

Date/timePositionNaut miles runAvg speedWind from/ knotsBaromVisibWave heightAir tempDewpointWater temp
2016-Jul-29 20:10N 50°41' W 001°03'4 5.7
2016-Jul-29 19:31N 50°44' W 001°05'3 3.3
2016-Jul-29 18:32N 50°47' W 001°07'  
2016-Jul-25 15:31N 50°47' W 001°07'0 0.3
2016-Jul-25 14:33N 50°47' W 001°07'4 3.6
2016-Jul-25 13:34N 50°45' W 001°12'2 1.9
2016-Jul-25 12:29N 50°46' W 001°15'0 0.0
2016-Jul-25 11:32N 50°46' W 001°15'0 0.0
2016-Jul-25 10:29N 50°46' W 001°15'0 0.0
2016-Jul-25 09:29N 50°46' W 001°15'0 0.0
2016-Jul-25 08:29N 50°46' W 001°15'2 2.0
2016-Jul-25 07:33N 50°47' W 001°16'  
2016-Jul-21 19:13N 50°51' W 001°19'3 4.6
2016-Jul-21 18:33N 50°48' W 001°16'4 3.8
2016-Jul-21 17:33N 50°46' W 001°10'3 2.7
2016-Jul-21 16:33N 50°47' W 001°06'  
Track history (hours):
 
Tides and Currents Weather Stations Pressure Air Temp Water Temp Dewpoint Dewpoint Depression Visibility Wind Speed Wind Dir Waves Ship Positions

S/y Tatsu

Last reported at 2016-Jul-29 20:10 UTC. Time now 2016-Jul-30 09:19 UTC.
Position N 50°41' W 001°03'.

Length 11 m.

Type: Sailing vessel. MMSI: 235071049.

Date/timePositionNaut miles runAvg speedWind from/ knotsBaromVisibWave heightAir tempDewpointWater temp
2016-Jul-29 20:10N 50°41' W 001°03'4 5.7
2016-Jul-29 19:31N 50°44' W 001°05'3 3.3
2016-Jul-29 18:32N 50°47' W 001°07'  
2016-Jul-25 15:31N 50°47' W 001°07'0 0.3
2016-Jul-25 14:33N 50°47' W 001°07'4 3.6
2016-Jul-25 13:34N 50°45' W 001°12'2 1.9
2016-Jul-25 12:29N 50°46' W 001°15'0 0.0
2016-Jul-25 11:32N 50°46' W 001°15'0 0.0
2016-Jul-25 10:29N 50°46' W 001°15'0 0.0
2016-Jul-25 09:29N 50°46' W 001°15'0 0.0
2016-Jul-25 08:29N 50°46' W 001°15'2 2.0
2016-Jul-25 07:33N 50°47' W 001°16'  
2016-Jul-21 19:13N 50°51' W 001°19'3 4.6
2016-Jul-21 18:33N 50°48' W 001°16'4 3.8
2016-Jul-21 17:33N 50°46' W 001°10'3 2.7
2016-Jul-21 16:33N 50°47' W 001°06'  

Dump ship's entire track history